createdAt,value
2018-08-10T00:01:45.379Z,4.05
2018-08-10T00:05:10.750Z,4.37
2018-08-10T00:08:35.250Z,1.65
2018-08-10T00:11:59.850Z,5.78
2018-08-10T00:15:24.439Z,2.83
2018-08-10T00:18:48.846Z,7.08
2018-08-10T00:22:13.330Z,7.45
2018-08-10T00:25:37.869Z,4.75
2018-08-10T00:29:02.690Z,7.05
2018-08-10T00:32:27.188Z,8.53
2018-08-10T00:35:51.631Z,13.62
2018-08-10T00:39:16.056Z,7.28
2018-08-10T00:42:41.127Z,3.40
2018-08-10T00:46:05.778Z,2.47
2018-08-10T00:49:30.336Z,2.30
2018-08-10T00:52:54.804Z,3.37
2018-08-10T00:56:19.296Z,5.90
2018-08-10T00:59:43.774Z,7.33
2018-08-10T01:03:08.234Z,4.00
2018-08-10T01:06:32.711Z,7.22
2018-08-10T01:09:57.113Z,6.15
2018-08-10T01:13:21.624Z,4.95
2018-08-10T01:16:46.028Z,8.53
2018-08-10T01:20:18.143Z,6.08
2018-08-10T01:23:42.557Z,6.85
2018-08-10T01:27:11.232Z,8.98
2018-08-10T01:30:36.392Z,7.62
2018-08-10T01:34:00.761Z,8.33
2018-08-10T01:37:25.181Z,6.35
2018-08-10T01:40:49.643Z,6.17
2018-08-10T01:44:14.077Z,6.55
2018-08-10T01:47:38.556Z,10.03
2018-08-10T01:51:02.994Z,9.75
2018-08-10T01:54:27.406Z,7.85
2018-08-10T01:57:51.855Z,6.97
2018-08-10T02:01:16.289Z,8.33
2018-08-10T02:04:40.708Z,6.78
2018-08-10T02:08:05.167Z,6.35
2018-08-10T02:11:29.564Z,10.68
2018-08-10T02:14:53.983Z,7.10
2018-08-10T02:18:18.418Z,7.70
2018-08-10T02:21:42.888Z,7.60
2018-08-10T02:25:09.029Z,9.15
2018-08-10T02:28:33.490Z,6.90
2018-08-10T02:31:57.927Z,6.07
2018-08-10T02:35:22.384Z,7.37
2018-08-10T02:38:46.799Z,5.47
2018-08-10T02:42:11.213Z,5.95
2018-08-10T02:45:35.690Z,4.97
2018-08-10T02:49:00.085Z,8.07
2018-08-10T02:52:24.827Z,3.97
2018-08-10T02:55:49.267Z,4.97
2018-08-10T02:59:13.734Z,5.57
2018-08-10T03:02:38.165Z,6.23
2018-08-10T03:06:02.620Z,7.17
2018-08-10T03:09:27.113Z,10.97
2018-08-10T03:12:51.553Z,7.17
2018-08-10T03:16:15.964Z,8.30
2018-08-10T03:19:40.410Z,7.70
2018-08-10T03:23:04.882Z,9.20
2018-08-10T03:26:29.333Z,7.60
2018-08-10T03:29:53.765Z,8.73
2018-08-10T03:33:18.232Z,8.17
2018-08-10T03:36:42.778Z,12.47
2018-08-10T03:40:11.092Z,7.87
2018-08-10T03:43:35.515Z,7.93
2018-08-10T03:46:59.925Z,10.17
2018-08-10T03:50:24.365Z,8.83
2018-08-10T03:53:48.811Z,7.90
2018-08-10T03:57:13.264Z,8.77
2018-08-10T04:00:37.720Z,11.77
2018-08-10T04:04:02.318Z,15.77
2018-08-10T04:07:26.772Z,13.63
2018-08-10T04:10:51.225Z,15.03
2018-08-10T04:14:15.660Z,9.50
2018-08-10T04:17:40.069Z,12.67
2018-08-10T04:21:04.570Z,12.70
2018-08-10T04:24:29.060Z,12.23
2018-08-10T04:27:53.557Z,9.80
2018-08-10T04:31:18.049Z,11.60
2018-08-10T04:34:42.533Z,12.07
2018-08-10T04:38:07.113Z,10.87
2018-08-10T04:41:31.557Z,12.60
2018-08-10T04:44:56.043Z,14.77
2018-08-10T04:48:20.531Z,16.63
2018-08-10T04:51:44.956Z,9.87
2018-08-10T04:55:09.464Z,10.07
2018-08-10T04:58:33.873Z,13.20
2018-08-10T05:01:58.345Z,14.37
2018-08-10T05:05:22.796Z,10.20
2018-08-10T05:08:47.225Z,11.07
2018-08-10T05:12:11.644Z,10.60
2018-08-10T05:15:36.130Z,13.30
2018-08-10T05:19:00.533Z,15.07
2018-08-10T05:22:24.986Z,11.00
2018-08-10T05:25:49.457Z,14.00
2018-08-10T05:29:13.915Z,11.73
2018-08-10T05:32:38.344Z,12.30
2018-08-10T05:36:02.805Z,9.80
2018-08-10T05:39:27.264Z,16.70
2018-08-10T05:42:51.702Z,13.93
2018-08-10T05:46:16.225Z,9.03
2018-08-10T05:49:40.591Z,11.45
2018-08-10T05:53:05.041Z,10.10
2018-08-10T05:56:29.478Z,9.90
2018-08-10T05:59:53.905Z,12.80
2018-08-10T06:03:18.367Z,11.43
2018-08-10T06:06:42.776Z,12.28
2018-08-10T06:10:09.109Z,10.95
2018-08-10T06:13:33.626Z,13.18
2018-08-10T06:16:58.135Z,16.30
2018-08-10T06:20:22.545Z,12.35
2018-08-10T06:23:46.977Z,15.00
2018-08-10T06:27:11.497Z,14.53
2018-08-10T06:30:35.939Z,10.53
2018-08-10T06:34:00.445Z,11.75
2018-08-10T06:37:24.789Z,7.47
2018-08-10T06:40:49.179Z,10.30
2018-08-10T06:44:13.596Z,10.72
2018-08-10T06:47:38.521Z,5.85
2018-08-10T06:51:02.981Z,7.28
2018-08-10T06:54:27.424Z,11.35
2018-08-10T06:57:51.797Z,8.78
2018-08-10T07:01:16.181Z,14.93
2018-08-10T07:04:40.635Z,18.50
2018-08-10T07:08:05.040Z,9.03
2018-08-10T07:11:29.445Z,12.37
2018-08-10T07:14:53.888Z,16.85
2018-08-10T07:18:18.375Z,8.95
2018-08-10T07:21:42.830Z,5.75
2018-08-10T07:25:07.897Z,12.03
2018-08-10T07:28:32.304Z,10.75
2018-08-10T07:31:56.786Z,9.60
2018-08-10T07:35:21.220Z,9.48
2018-08-10T07:38:45.644Z,13.40
2018-08-10T07:42:10.078Z,11.12
2018-08-10T07:45:34.523Z,7.53
2018-08-10T07:48:59.142Z,7.33
2018-08-10T07:52:24.115Z,8.53
2018-08-10T07:55:48.584Z,10.30
2018-08-10T07:59:13.085Z,7.30
2018-08-10T08:02:37.886Z,7.60
2018-08-10T08:06:02.325Z,11.73
2018-08-10T08:09:26.804Z,15.35
2018-08-10T08:12:51.326Z,16.00
2018-08-10T08:16:15.783Z,8.05
2018-08-10T08:19:40.349Z,9.48
2018-08-10T08:23:05.700Z,11.15
2018-08-10T08:26:30.292Z,7.60
2018-08-10T08:29:54.781Z,7.90
2018-08-10T08:33:19.338Z,10.13
2018-08-10T08:36:43.841Z,7.37
2018-08-10T08:40:16.681Z,6.65
2018-08-10T08:46:04.660Z,6.70
2018-08-10T08:49:29.061Z,5.37
2018-08-10T08:52:53.546Z,4.35
2018-08-10T08:56:19.505Z,7.35
2018-08-10T08:59:43.992Z,8.00
2018-08-10T09:03:19.263Z,8.35
2018-08-10T09:06:43.716Z,4.90
2018-08-10T09:10:15.632Z,4.53
2018-08-10T09:14:54.503Z,4.50
2018-08-10T09:18:19.041Z,6.42
2018-08-10T09:21:42.480Z,6.15
2018-08-10T09:25:12.005Z,7.97
2018-08-10T09:28:36.426Z,5.87
2018-08-10T09:32:00.859Z,4.22
2018-08-10T09:35:25.369Z,4.12
2018-08-10T09:38:49.786Z,3.80
2018-08-10T09:42:14.304Z,6.95
2018-08-10T09:45:38.723Z,5.65
2018-08-10T09:49:03.122Z,6.05
2018-08-10T09:52:27.604Z,7.75
2018-08-10T09:55:52.082Z,5.97
2018-08-10T09:59:16.520Z,3.83
2018-08-10T10:02:45.047Z,5.97
2018-08-10T10:06:09.537Z,7.35
2018-08-10T10:09:33.999Z,6.30
2018-08-10T10:12:58.750Z,6.97
2018-08-10T10:16:23.206Z,7.80
2018-08-10T10:19:47.660Z,4.80
2018-08-10T10:23:12.193Z,4.75
2018-08-10T10:26:36.634Z,3.52
2018-08-10T10:30:01.136Z,7.70
2018-08-10T10:33:26.995Z,2.75
2018-08-10T10:36:51.518Z,7.37
2018-08-10T10:40:15.900Z,5.55
2018-08-10T10:43:40.305Z,3.83
2018-08-10T10:47:04.823Z,9.30
2018-08-10T10:50:29.283Z,2.17
2018-08-10T10:53:53.709Z,4.25
2018-08-10T10:57:18.274Z,3.58
2018-08-10T11:00:42.792Z,7.55
2018-08-10T11:04:07.274Z,5.65
2018-08-10T11:07:31.751Z,6.67
2018-08-10T11:10:56.146Z,5.08
2018-08-10T11:14:20.650Z,5.60
2018-08-10T11:17:45.060Z,5.25
2018-08-10T11:21:09.620Z,6.00
2018-08-10T11:24:34.097Z,6.58
2018-08-10T11:27:58.595Z,6.45
2018-08-10T11:31:23.054Z,5.15
2018-08-10T11:34:47.494Z,3.77
2018-08-10T11:38:11.947Z,4.12
2018-08-10T11:41:36.450Z,2.35
2018-08-10T11:45:01.098Z,4.10
2018-08-10T11:48:25.504Z,4.25
2018-08-10T11:51:49.988Z,3.25
2018-08-10T11:55:15.290Z,4.00
2018-08-10T11:58:39.719Z,2.33
2018-08-10T12:02:04.228Z,4.25
2018-08-10T12:05:28.698Z,6.50
2018-08-10T12:08:53.114Z,2.52
2018-08-10T12:12:17.543Z,3.77
2018-08-10T12:15:42.023Z,5.35
2018-08-10T12:19:06.557Z,3.52
2018-08-10T12:22:31.016Z,4.67
2018-08-10T12:25:55.478Z,3.15
2018-08-10T12:29:19.978Z,3.47
2018-08-10T12:32:44.447Z,6.10
2018-08-10T12:36:09.749Z,4.47
2018-08-10T12:39:34.156Z,6.90
2018-08-10T12:42:58.584Z,3.10
2018-08-10T12:46:23.079Z,2.47
2018-08-10T12:49:47.503Z,6.47
2018-08-10T12:53:11.998Z,4.87
2018-08-10T12:56:36.452Z,3.90
2018-08-10T13:00:00.937Z,4.30
2018-08-10T13:03:25.404Z,5.75
2018-08-10T13:06:49.844Z,3.83
2018-08-10T13:10:14.266Z,3.00
2018-08-10T13:13:38.648Z,4.37
2018-08-10T13:17:03.096Z,2.67
2018-08-10T13:20:27.579Z,5.67
2018-08-10T13:23:52.194Z,1.87
2018-08-10T13:27:16.649Z,2.35
2018-08-10T13:30:41.148Z,1.37
2018-08-10T13:34:05.789Z,4.90
2018-08-10T13:37:30.354Z,6.83
2018-08-10T13:40:54.857Z,4.35
2018-08-10T13:44:19.313Z,4.12
2018-08-10T13:47:43.897Z,8.40
2018-08-10T13:51:08.452Z,2.70
2018-08-10T13:54:33.022Z,4.33
2018-08-10T13:57:57.608Z,2.33
2018-08-10T14:01:22.028Z,4.10
2018-08-10T14:04:46.458Z,1.87
2018-08-10T14:08:10.949Z,1.40
2018-08-10T14:11:35.592Z,4.75
2018-08-10T14:15:02.193Z,2.55
2018-08-10T14:18:26.639Z,4.72
2018-08-10T14:21:51.089Z,3.77
2018-08-10T14:25:15.553Z,6.22
2018-08-10T14:28:39.999Z,5.45
2018-08-10T14:32:04.444Z,5.58
2018-08-10T14:35:28.892Z,2.27
2018-08-10T14:38:53.399Z,1.85
2018-08-10T14:42:18.403Z,2.77
2018-08-10T14:45:42.868Z,1.60
2018-08-10T14:49:08.478Z,2.42
2018-08-10T14:52:32.934Z,1.00
2018-08-10T14:55:57.426Z,3.58
2018-08-10T14:59:21.912Z,2.55
2018-08-10T15:02:46.679Z,6.67
2018-08-10T15:06:11.038Z,3.40
2018-08-10T15:09:35.563Z,3.72
2018-08-10T15:13:00.105Z,1.67
2018-08-10T15:16:24.424Z,4.78
2018-08-10T15:19:48.877Z,4.12
2018-08-10T15:23:13.371Z,1.37
2018-08-10T15:26:38.112Z,2.58
2018-08-10T15:30:02.589Z,4.30
2018-08-10T15:33:27.187Z,2.35
2018-08-10T15:36:51.648Z,2.47
2018-08-10T15:40:19.357Z,3.98
2018-08-10T15:43:43.865Z,3.12
2018-08-10T15:47:08.379Z,2.00
2018-08-10T15:50:32.825Z,2.45
2018-08-10T15:53:57.280Z,3.55
2018-08-10T15:57:21.691Z,2.98
2018-08-10T16:00:46.127Z,2.10
2018-08-10T16:04:10.649Z,1.98
2018-08-10T16:07:35.039Z,4.33
2018-08-10T16:10:59.494Z,3.45
2018-08-10T16:14:23.992Z,2.25
2018-08-10T16:17:48.490Z,4.95
2018-08-10T16:21:13.037Z,2.58
2018-08-10T16:24:37.439Z,1.80
2018-08-10T16:28:01.928Z,1.50
2018-08-10T16:31:27.248Z,1.82
2018-08-10T16:34:51.669Z,1.32
2018-08-10T16:38:16.114Z,2.33
2018-08-10T16:41:40.589Z,3.02
2018-08-10T16:45:05.425Z,3.25
2018-08-10T16:48:29.837Z,2.42
2018-08-10T16:51:54.296Z,3.70
2018-08-10T16:55:19.907Z,6.42
2018-08-10T16:58:44.381Z,1.98
2018-08-10T17:02:09.924Z,1.42
2018-08-10T17:05:34.813Z,2.45
2018-08-10T17:08:59.288Z,3.05
2018-08-10T17:12:23.788Z,3.20
2018-08-10T17:15:48.327Z,2.22
2018-08-10T17:19:12.835Z,4.90
2018-08-10T17:22:37.270Z,5.70
2018-08-10T17:26:01.806Z,2.33
2018-08-10T17:29:26.296Z,2.22
2018-08-10T17:32:50.814Z,4.33
2018-08-10T17:36:15.266Z,3.80
2018-08-10T17:39:39.676Z,4.03
2018-08-10T17:43:04.260Z,5.35
2018-08-10T17:46:28.692Z,8.60
2018-08-10T17:49:53.187Z,4.75
2018-08-10T17:53:17.668Z,6.72
2018-08-10T17:56:42.113Z,4.45
2018-08-10T18:00:10.166Z,2.22
2018-08-10T18:03:34.618Z,3.80
2018-08-10T18:06:59.135Z,5.83
2018-08-10T18:10:23.692Z,14.58
2018-08-10T18:13:48.169Z,6.15
2018-08-10T18:17:12.637Z,6.65
2018-08-10T18:20:38.031Z,8.38
2018-08-10T18:24:02.491Z,3.02
2018-08-10T18:27:27.084Z,3.20
2018-08-10T18:30:51.543Z,4.72
2018-08-10T18:34:16.138Z,4.50
2018-08-10T18:37:41.545Z,2.50
2018-08-10T18:41:20.210Z,1.37
2018-08-10T18:44:45.335Z,5.85
2018-08-10T18:48:10.199Z,6.83
2018-08-10T18:51:34.689Z,2.10
2018-08-10T18:55:00.187Z,3.85
2018-08-10T18:58:25.386Z,3.15
2018-08-10T19:01:50.994Z,8.45
2018-08-10T19:05:16.741Z,3.83
2018-08-10T19:08:42.138Z,5.33
2018-08-10T19:12:07.352Z,2.45
2018-08-10T19:15:31.856Z,4.12
2018-08-10T19:18:56.440Z,2.98
2018-08-10T19:22:21.284Z,2.70
2018-08-10T19:25:46.196Z,2.52
2018-08-10T19:29:12.617Z,3.50
2018-08-10T19:32:37.078Z,3.15
2018-08-10T19:36:01.851Z,2.95
2018-08-10T19:39:26.988Z,4.95
2018-08-10T19:42:51.995Z,2.02
2018-08-10T19:46:16.800Z,2.12
2018-08-10T19:49:42.067Z,2.58
2018-08-10T19:53:06.661Z,4.15
2018-08-10T19:56:33.154Z,2.40
2018-08-10T19:59:58.166Z,3.92
2018-08-10T20:03:23.777Z,1.35
2018-08-10T20:06:49.501Z,2.98
2018-08-10T20:10:15.974Z,5.60
2018-08-10T20:13:41.343Z,1.50
2018-08-10T20:17:07.720Z,1.98
2018-08-10T20:20:32.608Z,1.90
2018-08-10T20:23:57.728Z,2.10
2018-08-10T20:27:22.430Z,2.10
2018-08-10T20:30:47.110Z,2.08
2018-08-10T20:34:13.114Z,3.47
2018-08-10T20:37:38.543Z,8.63
2018-08-10T20:41:04.039Z,3.55
2018-08-10T20:44:29.545Z,6.30
2018-08-10T20:47:54.285Z,4.42
2018-08-10T20:51:19.594Z,3.67
2018-08-10T20:54:48.001Z,5.90
2018-08-10T20:58:13.155Z,5.58
2018-08-10T21:01:38.955Z,1.82
2018-08-10T21:05:04.849Z,2.98
2018-08-10T21:08:29.702Z,4.47
2018-08-10T21:11:54.759Z,3.47
2018-08-10T21:15:20.993Z,6.72
2018-08-10T21:18:45.505Z,3.70
2018-08-10T21:22:10.188Z,5.22
2018-08-10T21:25:35.144Z,5.78
2018-08-10T21:29:00.192Z,3.87
2018-08-10T21:32:24.940Z,4.85
2018-08-10T21:35:49.452Z,5.67
2018-08-10T21:39:14.324Z,4.53
2018-08-10T21:42:40.402Z,5.55
2018-08-10T21:46:05.984Z,3.70
2018-08-10T21:49:30.509Z,3.83
2018-08-10T21:52:55.652Z,2.22
2018-08-10T21:56:20.420Z,3.08
2018-08-10T21:59:44.973Z,4.67
2018-08-10T22:03:10.726Z,9.83
2018-08-10T22:06:35.564Z,4.37
2018-08-10T22:10:00.497Z,4.33
2018-08-10T22:13:30.429Z,3.70
2018-08-10T22:17:00.039Z,3.98
2018-08-10T22:20:24.489Z,2.90
2018-08-10T22:23:48.999Z,9.60
2018-08-10T22:27:13.514Z,3.35
2018-08-10T22:30:38.080Z,5.90
2018-08-10T22:34:02.567Z,3.22
2018-08-10T22:37:27.052Z,2.80
2018-08-10T22:40:51.513Z,3.83
2018-08-10T22:44:15.987Z,4.58
2018-08-10T22:47:40.435Z,5.05
2018-08-10T22:51:04.980Z,4.17
2018-08-10T22:54:29.449Z,4.80
2018-08-10T22:57:53.994Z,7.08
2018-08-10T23:01:18.383Z,4.22
2018-08-10T23:04:44.067Z,4.55
2018-08-10T23:08:08.839Z,6.67
2018-08-10T23:11:33.304Z,6.58
2018-08-10T23:14:57.808Z,3.22
2018-08-10T23:18:22.307Z,2.80
2018-08-10T23:21:46.740Z,2.40
2018-08-10T23:25:13.622Z,3.30
2018-08-10T23:28:38.098Z,4.58
2018-08-10T23:32:02.593Z,3.22
2018-08-10T23:35:27.088Z,4.65
2018-08-10T23:38:51.474Z,2.08
2018-08-10T23:42:15.971Z,4.00
2018-08-10T23:45:40.354Z,5.22
2018-08-10T23:49:05.067Z,5.15
2018-08-10T23:52:29.490Z,4.33
2018-08-10T23:56:00.551Z,3.30
2018-08-10T23:59:25.220Z,5.10
